sensor_id;sensor_type;location;lat;lon;timestamp;P1;durP1;ratioP1;P2;durP2;ratioP2
45488;SDS011;31236;55.026;61.042;2022-08-01T00:01:00;53.17;;;39.63;;
45488;SDS011;31236;55.026;61.042;2022-08-01T00:06:01;52.43;;;38.02;;
45488;SDS011;31236;55.026;61.042;2022-08-01T00:08:32;52.38;;;38.70;;
45488;SDS011;31236;55.026;61.042;2022-08-01T00:11:02;57.40;;;39.50;;
45488;SDS011;31236;55.026;61.042;2022-08-01T00:13:35;52.98;;;39.85;;
45488;SDS011;31236;55.026;61.042;2022-08-01T00:16:06;60.75;;;39.70;;
45488;SDS011;31236;55.026;61.042;2022-08-01T00:18:38;57.38;;;40.85;;
45488;SDS011;31236;55.026;61.042;2022-08-01T00:21:09;54.23;;;40.43;;
45488;SDS011;31236;55.026;61.042;2022-08-01T00:23:40;56.68;;;39.67;;
45488;SDS011;31236;55.026;61.042;2022-08-01T00:29:01;58.83;;;40.92;;
45488;SDS011;31236;55.026;61.042;2022-08-01T00:31:31;58.15;;;39.88;;
45488;SDS011;31236;55.026;61.042;2022-08-01T00:36:33;48.52;;;37.63;;
45488;SDS011;31236;55.026;61.042;2022-08-01T00:39:03;58.68;;;40.08;;
45488;SDS011;31236;55.026;61.042;2022-08-01T00:41:36;57.60;;;40.08;;
45488;SDS011;31236;55.026;61.042;2022-08-01T00:44:06;55.70;;;38.02;;
45488;SDS011;31236;55.026;61.042;2022-08-01T00:46:37;59.25;;;40.08;;
45488;SDS011;31236;55.026;61.042;2022-08-01T00:49:07;54.75;;;39.30;;
45488;SDS011;31236;55.026;61.042;2022-08-01T00:51:38;53.55;;;38.42;;
45488;SDS011;31236;55.026;61.042;2022-08-01T00:54:09;53.52;;;38.70;;
45488;SDS011;31236;55.026;61.042;2022-08-01T00:56:39;53.60;;;37.95;;
45488;SDS011;31236;55.026;61.042;2022-08-01T00:59:11;55.28;;;38.38;;
45488;SDS011;31236;55.026;61.042;2022-08-01T01:01:41;52.73;;;37.90;;
45488;SDS011;31236;55.026;61.042;2022-08-01T01:04:12;48.78;;;35.73;;
45488;SDS011;31236;55.026;61.042;2022-08-01T01:18:57;46.68;;;34.18;;
45488;SDS011;31236;55.026;61.042;2022-08-01T01:29:53;55.38;;;33.90;;
45488;SDS011;31236;55.026;61.042;2022-08-01T01:35:48;66.05;;;37.35;;
45488;SDS011;31236;55.026;61.042;2022-08-01T01:40:59;53.58;;;33.48;;
45488;SDS011;31236;55.026;61.042;2022-08-01T01:43:33;58.75;;;35.15;;
45488;SDS011;31236;55.026;61.042;2022-08-01T01:46:09;63.48;;;33.98;;
45488;SDS011;31236;55.026;61.042;2022-08-01T01:48:44;59.20;;;34.85;;
45488;SDS011;31236;55.026;61.042;2022-08-01T01:51:16;63.65;;;35.17;;
45488;SDS011;31236;55.026;61.042;2022-08-01T01:53:53;57.48;;;31.80;;
45488;SDS011;31236;55.026;61.042;2022-08-01T01:56:24;60.12;;;31.40;;
45488;SDS011;31236;55.026;61.042;2022-08-01T01:59:00;57.48;;;32.65;;
45488;SDS011;31236;55.026;61.042;2022-08-01T02:01:34;67.10;;;31.40;;
45488;SDS011;31236;55.026;61.042;2022-08-01T02:04:07;45.50;;;28.00;;
45488;SDS011;31236;55.026;61.042;2022-08-01T02:06:37;57.33;;;32.33;;
45488;SDS011;31236;55.026;61.042;2022-08-01T02:11:43;61.50;;;30.20;;
45488;SDS011;31236;55.026;61.042;2022-08-01T02:14:17;59.98;;;31.15;;
45488;SDS011;31236;55.026;61.042;2022-08-01T02:16:50;69.40;;;30.27;;
45488;SDS011;31236;55.026;61.042;2022-08-01T02:19:20;50.85;;;28.87;;
45488;SDS011;31236;55.026;61.042;2022-08-01T02:24:49;55.63;;;31.75;;
45488;SDS011;31236;55.026;61.042;2022-08-01T02:30:35;50.30;;;28.20;;
45488;SDS011;31236;55.026;61.042;2022-08-01T02:35:46;69.58;;;31.62;;
45488;SDS011;31236;55.026;61.042;2022-08-01T02:38:22;47.13;;;30.08;;
45488;SDS011;31236;55.026;61.042;2022-08-01T02:40:54;66.05;;;31.00;;
45488;SDS011;31236;55.026;61.042;2022-08-01T02:43:26;52.05;;;28.65;;
45488;SDS011;31236;55.026;61.042;2022-08-01T02:46:02;47.30;;;27.52;;
45488;SDS011;31236;55.026;61.042;2022-08-01T02:48:35;48.50;;;28.23;;
45488;SDS011;31236;55.026;61.042;2022-08-01T02:51:07;51.37;;;26.90;;
45488;SDS011;31236;55.026;61.042;2022-08-01T02:53:40;50.20;;;27.95;;
45488;SDS011;31236;55.026;61.042;2022-08-01T02:56:13;53.90;;;26.65;;
45488;SDS011;31236;55.026;61.042;2022-08-01T02:58:46;46.13;;;25.80;;
45488;SDS011;31236;55.026;61.042;2022-08-01T03:01:17;38.02;;;23.60;;
45488;SDS011;31236;55.026;61.042;2022-08-01T03:03:49;35.50;;;22.73;;
45488;SDS011;31236;55.026;61.042;2022-08-01T03:06:20;36.68;;;22.30;;
45488;SDS011;31236;55.026;61.042;2022-08-01T03:08:51;35.08;;;21.50;;
45488;SDS011;31236;55.026;61.042;2022-08-01T03:11:24;32.48;;;20.97;;
45488;SDS011;31236;55.026;61.042;2022-08-01T03:13:56;29.45;;;21.20;;
45488;SDS011;31236;55.026;61.042;2022-08-01T03:16:28;29.18;;;19.23;;
45488;SDS011;31236;55.026;61.042;2022-08-01T03:19:00;28.67;;;19.37;;
45488;SDS011;31236;55.026;61.042;2022-08-01T03:21:32;28.98;;;20.08;;
45488;SDS011;31236;55.026;61.042;2022-08-01T03:26:34;29.20;;;20.40;;
45488;SDS011;31236;55.026;61.042;2022-08-01T03:29:08;29.37;;;20.00;;
45488;SDS011;31236;55.026;61.042;2022-08-01T03:31:41;29.02;;;20.43;;
45488;SDS011;31236;55.026;61.042;2022-08-01T03:34:13;28.10;;;20.02;;
45488;SDS011;31236;55.026;61.042;2022-08-01T03:46:11;28.95;;;20.00;;
45488;SDS011;31236;55.026;61.042;2022-08-01T03:48:43;28.65;;;19.80;;
45488;SDS011;31236;55.026;61.042;2022-08-01T03:51:14;29.42;;;19.82;;
45488;SDS011;31236;55.026;61.042;2022-08-01T03:53:47;29.37;;;20.17;;
45488;SDS011;31236;55.026;61.042;2022-08-01T03:56:19;27.93;;;18.98;;
45488;SDS011;31236;55.026;61.042;2022-08-01T03:58:52;28.02;;;19.48;;
45488;SDS011;31236;55.026;61.042;2022-08-01T04:01:24;25.10;;;17.57;;
45488;SDS011;31236;55.026;61.042;2022-08-01T04:03:57;29.92;;;20.00;;
45488;SDS011;31236;55.026;61.042;2022-08-01T04:06:30;30.48;;;19.55;;
45488;SDS011;31236;55.026;61.042;2022-08-01T04:09:00;36.73;;;22.30;;
45488;SDS011;31236;55.026;61.042;2022-08-01T04:11:30;27.55;;;19.32;;
45488;SDS011;31236;55.026;61.042;2022-08-01T04:14:01;28.42;;;19.37;;
45488;SDS011;31236;55.026;61.042;2022-08-01T04:16:31;27.15;;;17.90;;
45488;SDS011;31236;55.026;61.042;2022-08-01T04:19:01;29.82;;;19.48;;
45488;SDS011;31236;55.026;61.042;2022-08-01T04:21:32;29.77;;;18.25;;
45488;SDS011;31236;55.026;61.042;2022-08-01T04:24:06;27.15;;;18.05;;
45488;SDS011;31236;55.026;61.042;2022-08-01T04:26:36;25.85;;;18.20;;
45488;SDS011;31236;55.026;61.042;2022-08-01T04:29:08;25.37;;;18.02;;
45488;SDS011;31236;55.026;61.042;2022-08-01T04:31:41;25.75;;;18.85;;
45488;SDS011;31236;55.026;61.042;2022-08-01T04:34:14;25.60;;;18.42;;
45488;SDS011;31236;55.026;61.042;2022-08-01T04:36:46;26.62;;;18.98;;
45488;SDS011;31236;55.026;61.042;2022-08-01T04:39:18;27.00;;;18.90;;
45488;SDS011;31236;55.026;61.042;2022-08-01T04:41:49;28.02;;;18.25;;
45488;SDS011;31236;55.026;61.042;2022-08-01T04:44:22;26.52;;;19.02;;
45488;SDS011;31236;55.026;61.042;2022-08-01T04:49:23;22.58;;;16.93;;
45488;SDS011;31236;55.026;61.042;2022-08-01T04:51:53;23.85;;;16.75;;
45488;SDS011;31236;55.026;61.042;2022-08-01T04:54:43;22.65;;;15.72;;
45488;SDS011;31236;55.026;61.042;2022-08-01T04:57:13;21.77;;;15.93;;
45488;SDS011;31236;55.026;61.042;2022-08-01T04:59:43;24.85;;;16.97;;
45488;SDS011;31236;55.026;61.042;2022-08-01T05:05:04;23.05;;;16.15;;
45488;SDS011;31236;55.026;61.042;2022-08-01T05:07:36;25.20;;;16.57;;
45488;SDS011;31236;55.026;61.042;2022-08-01T05:10:06;21.85;;;15.72;;
45488;SDS011;31236;55.026;61.042;2022-08-01T05:12:37;19.32;;;14.15;;
45488;SDS011;31236;55.026;61.042;2022-08-01T05:15:07;20.57;;;15.13;;
45488;SDS011;31236;55.026;61.042;2022-08-01T05:17:37;19.85;;;15.28;;
45488;SDS011;31236;55.026;61.042;2022-08-01T05:20:10;20.82;;;14.07;;
45488;SDS011;31236;55.026;61.042;2022-08-01T05:22:40;18.65;;;14.58;;
45488;SDS011;31236;55.026;61.042;2022-08-01T05:25:30;17.87;;;13.43;;
45488;SDS011;31236;55.026;61.042;2022-08-01T05:28:00;21.33;;;14.38;;
45488;SDS011;31236;55.026;61.042;2022-08-01T05:30:31;19.73;;;14.13;;
45488;SDS011;31236;55.026;61.042;2022-08-01T05:33:03;18.50;;;12.60;;
45488;SDS011;31236;55.026;61.042;2022-08-01T05:35:33;16.73;;;13.05;;
45488;SDS011;31236;55.026;61.042;2022-08-01T05:38:03;19.60;;;14.00;;
45488;SDS011;31236;55.026;61.042;2022-08-01T05:40:33;20.50;;;13.80;;
45488;SDS011;31236;55.026;61.042;2022-08-01T05:43:04;21.03;;;14.97;;
45488;SDS011;31236;55.026;61.042;2022-08-01T05:45:34;19.82;;;15.05;;
45488;SDS011;31236;55.026;61.042;2022-08-01T05:48:04;20.57;;;15.25;;
45488;SDS011;31236;55.026;61.042;2022-08-01T05:50:34;21.07;;;15.50;;
45488;SDS011;31236;55.026;61.042;2022-08-01T05:53:04;23.32;;;15.10;;
45488;SDS011;31236;55.026;61.042;2022-08-01T05:55:36;22.07;;;15.93;;
45488;SDS011;31236;55.026;61.042;2022-08-01T05:58:06;21.77;;;15.45;;
45488;SDS011;31236;55.026;61.042;2022-08-01T06:00:36;21.85;;;15.15;;
45488;SDS011;31236;55.026;61.042;2022-08-01T06:03:06;21.55;;;15.60;;
45488;SDS011;31236;55.026;61.042;2022-08-01T06:05:37;21.62;;;13.98;;
45488;SDS011;31236;55.026;61.042;2022-08-01T06:08:09;15.53;;;11.68;;
45488;SDS011;31236;55.026;61.042;2022-08-01T06:10:39;18.20;;;12.37;;
45488;SDS011;31236;55.026;61.042;2022-08-01T06:13:09;16.40;;;12.03;;
45488;SDS011;31236;55.026;61.042;2022-08-01T06:15:39;17.65;;;11.65;;
45488;SDS011;31236;55.026;61.042;2022-08-01T06:18:09;20.20;;;13.48;;
45488;SDS011;31236;55.026;61.042;2022-08-01T06:20:39;16.57;;;11.08;;
45488;SDS011;31236;55.026;61.042;2022-08-01T06:23:09;14.87;;;9.95;;
45488;SDS011;31236;55.026;61.042;2022-08-01T06:25:39;16.73;;;11.22;;
45488;SDS011;31236;55.026;61.042;2022-08-01T06:28:09;15.13;;;10.88;;
45488;SDS011;31236;55.026;61.042;2022-08-01T06:30:39;13.58;;;9.20;;
45488;SDS011;31236;55.026;61.042;2022-08-01T06:33:10;14.43;;;10.50;;
45488;SDS011;31236;55.026;61.042;2022-08-01T06:35:39;14.75;;;10.43;;
45488;SDS011;31236;55.026;61.042;2022-08-01T06:38:09;13.65;;;10.10;;
45488;SDS011;31236;55.026;61.042;2022-08-01T06:40:39;13.68;;;10.00;;
45488;SDS011;31236;55.026;61.042;2022-08-01T06:43:09;12.93;;;9.45;;
45488;SDS011;31236;55.026;61.042;2022-08-01T06:45:39;14.23;;;9.70;;
45488;SDS011;31236;55.026;61.042;2022-08-01T06:48:09;13.78;;;9.35;;
45488;SDS011;31236;55.026;61.042;2022-08-01T06:50:39;12.78;;;9.73;;
45488;SDS011;31236;55.026;61.042;2022-08-01T06:53:09;13.65;;;10.53;;
45488;SDS011;31236;55.026;61.042;2022-08-01T06:55:39;15.32;;;9.95;;
45488;SDS011;31236;55.026;61.042;2022-08-01T06:58:09;15.88;;;10.70;;
45488;SDS011;31236;55.026;61.042;2022-08-01T07:00:39;16.00;;;9.58;;
45488;SDS011;31236;55.026;61.042;2022-08-01T07:03:09;15.08;;;9.80;;
45488;SDS011;31236;55.026;61.042;2022-08-01T07:05:39;13.15;;;9.58;;
45488;SDS011;31236;55.026;61.042;2022-08-01T07:08:09;14.33;;;10.48;;
45488;SDS011;31236;55.026;61.042;2022-08-01T07:10:39;15.80;;;9.43;;
45488;SDS011;31236;55.026;61.042;2022-08-01T07:13:09;15.55;;;10.08;;
45488;SDS011;31236;55.026;61.042;2022-08-01T07:15:40;14.47;;;9.58;;
45488;SDS011;31236;55.026;61.042;2022-08-01T07:18:10;14.43;;;9.50;;
45488;SDS011;31236;55.026;61.042;2022-08-01T07:20:40;16.10;;;9.90;;
45488;SDS011;31236;55.026;61.042;2022-08-01T07:23:12;13.27;;;9.53;;
45488;SDS011;31236;55.026;61.042;2022-08-01T07:25:42;13.22;;;10.05;;
45488;SDS011;31236;55.026;61.042;2022-08-01T07:28:12;14.55;;;9.43;;
45488;SDS011;31236;55.026;61.042;2022-08-01T07:30:42;13.48;;;9.08;;
45488;SDS011;31236;55.026;61.042;2022-08-01T07:33:12;13.43;;;9.40;;
45488;SDS011;31236;55.026;61.042;2022-08-01T07:35:42;12.68;;;8.65;;
45488;SDS011;31236;55.026;61.042;2022-08-01T07:38:12;30.52;;;22.77;;
45488;SDS011;31236;55.026;61.042;2022-08-01T07:40:43;14.40;;;10.28;;
45488;SDS011;31236;55.026;61.042;2022-08-01T07:43:13;16.48;;;11.08;;
45488;SDS011;31236;55.026;61.042;2022-08-01T07:45:43;19.50;;;10.75;;
45488;SDS011;31236;55.026;61.042;2022-08-01T07:48:13;26.90;;;10.82;;
45488;SDS011;31236;55.026;61.042;2022-08-01T07:50:47;19.30;;;11.28;;
45488;SDS011;31236;55.026;61.042;2022-08-01T07:55:49;16.60;;;11.18;;
45488;SDS011;31236;55.026;61.042;2022-08-01T07:58:23;18.52;;;13.83;;
45488;SDS011;31236;55.026;61.042;2022-08-01T08:00:54;20.60;;;13.58;;
45488;SDS011;31236;55.026;61.042;2022-08-01T08:03:24;18.00;;;13.45;;
45488;SDS011;31236;55.026;61.042;2022-08-01T08:05:55;18.17;;;14.70;;
45488;SDS011;31236;55.026;61.042;2022-08-01T08:08:25;24.80;;;18.37;;
45488;SDS011;31236;55.026;61.042;2022-08-01T08:10:56;20.77;;;16.17;;
45488;SDS011;31236;55.026;61.042;2022-08-01T08:13:26;16.85;;;12.15;;
45488;SDS011;31236;55.026;61.042;2022-08-01T08:15:57;18.27;;;13.03;;
45488;SDS011;31236;55.026;61.042;2022-08-01T08:18:27;19.90;;;13.32;;
45488;SDS011;31236;55.026;61.042;2022-08-01T08:20:57;17.12;;;12.90;;
45488;SDS011;31236;55.026;61.042;2022-08-01T08:23:28;20.88;;;13.32;;
45488;SDS011;31236;55.026;61.042;2022-08-01T08:26:17;19.90;;;12.47;;
45488;SDS011;31236;55.026;61.042;2022-08-01T08:28:49;17.32;;;14.10;;
45488;SDS011;31236;55.026;61.042;2022-08-01T08:31:20;17.85;;;13.25;;
45488;SDS011;31236;55.026;61.042;2022-08-01T08:33:50;18.32;;;13.53;;
45488;SDS011;31236;55.026;61.042;2022-08-01T08:36:21;20.48;;;14.30;;
45488;SDS011;31236;55.026;61.042;2022-08-01T08:38:51;20.80;;;15.35;;
45488;SDS011;31236;55.026;61.042;2022-08-01T08:44:13;21.55;;;15.85;;
45488;SDS011;31236;55.026;61.042;2022-08-01T08:46:44;21.70;;;17.07;;
45488;SDS011;31236;55.026;61.042;2022-08-01T08:51:52;17.95;;;14.33;;
45488;SDS011;31236;55.026;61.042;2022-08-01T08:54:24;21.97;;;13.72;;
45488;SDS011;31236;55.026;61.042;2022-08-01T08:56:55;19.37;;;14.30;;
45488;SDS011;31236;55.026;61.042;2022-08-01T08:59:26;17.05;;;12.75;;
45488;SDS011;31236;55.026;61.042;2022-08-01T09:01:57;18.15;;;13.03;;
45488;SDS011;31236;55.026;61.042;2022-08-01T09:04:27;16.77;;;12.65;;
45488;SDS011;31236;55.026;61.042;2022-08-01T09:06:57;18.87;;;13.45;;
45488;SDS011;31236;55.026;61.042;2022-08-01T09:09:27;16.85;;;12.88;;
45488;SDS011;31236;55.026;61.042;2022-08-01T09:11:59;20.32;;;11.65;;
45488;SDS011;31236;55.026;61.042;2022-08-01T09:14:29;17.12;;;11.40;;
45488;SDS011;31236;55.026;61.042;2022-08-01T09:17:02;17.85;;;10.90;;
45488;SDS011;31236;55.026;61.042;2022-08-01T09:19:35;16.95;;;9.78;;
45488;SDS011;31236;55.026;61.042;2022-08-01T09:22:07;16.10;;;10.00;;
45488;SDS011;31236;55.026;61.042;2022-08-01T09:24:41;14.28;;;9.95;;
45488;SDS011;31236;55.026;61.042;2022-08-01T09:35:40;15.25;;;11.22;;
45488;SDS011;31236;55.026;61.042;2022-08-01T09:41:01;16.07;;;10.75;;
45488;SDS011;31236;55.026;61.042;2022-08-01T09:43:31;15.13;;;10.65;;
45488;SDS011;31236;55.026;61.042;2022-08-01T09:51:40;13.85;;;10.60;;
45488;SDS011;31236;55.026;61.042;2022-08-01T09:54:10;15.50;;;11.30;;
45488;SDS011;31236;55.026;61.042;2022-08-01T09:56:40;14.78;;;11.53;;
45488;SDS011;31236;55.026;61.042;2022-08-01T09:59:12;16.82;;;12.35;;
45488;SDS011;31236;55.026;61.042;2022-08-01T10:01:44;16.97;;;12.03;;
45488;SDS011;31236;55.026;61.042;2022-08-01T10:04:16;14.53;;;11.90;;
45488;SDS011;31236;55.026;61.042;2022-08-01T10:06:49;15.00;;;10.93;;
45488;SDS011;31236;55.026;61.042;2022-08-01T10:12:12;17.52;;;12.95;;
45488;SDS011;31236;55.026;61.042;2022-08-01T10:15:02;18.82;;;14.50;;
45488;SDS011;31236;55.026;61.042;2022-08-01T10:17:34;20.32;;;15.23;;
45488;SDS011;31236;55.026;61.042;2022-08-01T10:20:06;19.05;;;15.68;;
45488;SDS011;31236;55.026;61.042;2022-08-01T10:22:37;23.05;;;18.85;;
45488;SDS011;31236;55.026;61.042;2022-08-01T10:27:39;26.60;;;20.95;;
45488;SDS011;31236;55.026;61.042;2022-08-01T10:30:31;25.88;;;18.87;;
45488;SDS011;31236;55.026;61.042;2022-08-01T10:33:00;19.62;;;16.80;;
45488;SDS011;31236;55.026;61.042;2022-08-01T10:35:31;21.62;;;17.75;;
45488;SDS011;31236;55.026;61.042;2022-08-01T10:38:01;27.82;;;23.18;;
45488;SDS011;31236;55.026;61.042;2022-08-01T10:40:32;33.65;;;25.80;;
45488;SDS011;31236;55.026;61.042;2022-08-01T10:43:02;35.03;;;27.02;;
45488;SDS011;31236;55.026;61.042;2022-08-01T10:45:32;45.75;;;31.07;;
45488;SDS011;31236;55.026;61.042;2022-08-01T10:48:04;37.40;;;31.50;;
45488;SDS011;31236;55.026;61.042;2022-08-01T10:50:53;39.88;;;31.23;;
45488;SDS011;31236;55.026;61.042;2022-08-01T10:53:26;40.80;;;31.82;;
45488;SDS011;31236;55.026;61.042;2022-08-01T10:58:48;40.88;;;31.30;;
45488;SDS011;31236;55.026;61.042;2022-08-01T11:07:02;36.17;;;28.40;;
45488;SDS011;31236;55.026;61.042;2022-08-01T11:12:42;33.65;;;27.10;;
45488;SDS011;31236;55.026;61.042;2022-08-01T11:17:47;32.55;;;27.82;;
45488;SDS011;31236;55.026;61.042;2022-08-01T11:30:48;29.30;;;22.58;;
45488;SDS011;31236;55.026;61.042;2022-08-01T11:36:28;28.38;;;22.25;;
45488;SDS011;31236;55.026;61.042;2022-08-01T11:41:32;23.70;;;18.00;;
45488;SDS011;31236;55.026;61.042;2022-08-01T11:44:04;21.27;;;17.47;;
45488;SDS011;31236;55.026;61.042;2022-08-01T11:49:47;21.55;;;16.95;;
45488;SDS011;31236;55.026;61.042;2022-08-01T11:52:23;20.90;;;16.73;;
45488;SDS011;31236;55.026;61.042;2022-08-01T11:55:11;23.25;;;17.67;;
45488;SDS011;31236;55.026;61.042;2022-08-01T11:57:41;23.50;;;17.67;;
45488;SDS011;31236;55.026;61.042;2022-08-01T12:00:12;25.17;;;18.25;;
45488;SDS011;31236;55.026;61.042;2022-08-01T12:03:04;22.55;;;16.05;;
45488;SDS011;31236;55.026;61.042;2022-08-01T12:05:35;20.57;;;16.15;;
45488;SDS011;31236;55.026;61.042;2022-08-01T12:08:05;20.05;;;16.30;;
45488;SDS011;31236;55.026;61.042;2022-08-01T12:10:35;19.00;;;14.73;;
45488;SDS011;31236;55.026;61.042;2022-08-01T12:13:05;19.57;;;15.40;;
45488;SDS011;31236;55.026;61.042;2022-08-01T12:15:36;20.10;;;14.83;;
45488;SDS011;31236;55.026;61.042;2022-08-01T12:18:06;17.32;;;14.20;;
45488;SDS011;31236;55.026;61.042;2022-08-01T12:23:11;27.70;;;21.68;;
45488;SDS011;31236;55.026;61.042;2022-08-01T12:25:43;22.75;;;17.00;;
45488;SDS011;31236;55.026;61.042;2022-08-01T12:28:14;27.10;;;19.70;;
45488;SDS011;31236;55.026;61.042;2022-08-01T12:30:46;23.20;;;17.85;;
45488;SDS011;31236;55.026;61.042;2022-08-01T12:33:38;26.15;;;19.27;;
45488;SDS011;31236;55.026;61.042;2022-08-01T12:36:08;30.17;;;19.87;;
45488;SDS011;31236;55.026;61.042;2022-08-01T13:21:19;27.45;;;20.95;;
45488;SDS011;31236;55.026;61.042;2022-08-01T13:27:01;28.95;;;18.42;;
45488;SDS011;31236;55.026;61.042;2022-08-01T13:33:20;27.17;;;19.17;;
45488;SDS011;31236;55.026;61.042;2022-08-01T13:35:52;30.95;;;19.60;;
45488;SDS011;31236;55.026;61.042;2022-08-01T13:41:34;29.77;;;19.87;;
45488;SDS011;31236;55.026;61.042;2022-08-01T13:44:05;29.57;;;21.23;;
45488;SDS011;31236;55.026;61.042;2022-08-01T13:46:35;24.30;;;18.85;;
45488;SDS011;31236;55.026;61.042;2022-08-01T13:49:07;24.67;;;17.12;;
45488;SDS011;31236;55.026;61.042;2022-08-01T13:51:38;25.48;;;18.67;;
45488;SDS011;31236;55.026;61.042;2022-08-01T13:54:47;22.55;;;17.77;;
45488;SDS011;31236;55.026;61.042;2022-08-01T13:57:18;24.25;;;17.48;;
45488;SDS011;31236;55.026;61.042;2022-08-01T13:59:48;26.10;;;18.23;;
45488;SDS011;31236;55.026;61.042;2022-08-01T14:02:19;25.12;;;17.35;;
45488;SDS011;31236;55.026;61.042;2022-08-01T14:04:52;23.65;;;17.15;;
45488;SDS011;31236;55.026;61.042;2022-08-01T14:09:54;21.25;;;15.32;;
45488;SDS011;31236;55.026;61.042;2022-08-01T14:12:25;19.35;;;15.95;;
45488;SDS011;31236;55.026;61.042;2022-08-01T14:15:53;23.45;;;16.25;;
45488;SDS011;31236;55.026;61.042;2022-08-01T14:18:23;23.22;;;16.12;;
45488;SDS011;31236;55.026;61.042;2022-08-01T14:20:54;21.12;;;15.18;;
45488;SDS011;31236;55.026;61.042;2022-08-01T14:23:24;19.12;;;14.73;;
45488;SDS011;31236;55.026;61.042;2022-08-01T14:25:55;19.57;;;14.75;;
45488;SDS011;31236;55.026;61.042;2022-08-01T14:28:25;22.75;;;14.65;;
45488;SDS011;31236;55.026;61.042;2022-08-01T14:30:56;20.65;;;14.10;;
45488;SDS011;31236;55.026;61.042;2022-08-01T14:33:27;18.07;;;14.30;;
45488;SDS011;31236;55.026;61.042;2022-08-01T14:35:58;19.30;;;15.18;;
45488;SDS011;31236;55.026;61.042;2022-08-01T14:38:28;27.27;;;15.75;;
45488;SDS011;31236;55.026;61.042;2022-08-01T14:40:58;24.77;;;16.45;;
45488;SDS011;31236;55.026;61.042;2022-08-01T14:43:29;23.42;;;16.27;;
45488;SDS011;31236;55.026;61.042;2022-08-01T14:46:00;23.20;;;14.98;;
45488;SDS011;31236;55.026;61.042;2022-08-01T14:48:30;19.25;;;14.55;;
45488;SDS011;31236;55.026;61.042;2022-08-01T14:51:01;19.67;;;13.68;;
45488;SDS011;31236;55.026;61.042;2022-08-01T14:53:33;21.00;;;14.83;;
45488;SDS011;31236;55.026;61.042;2022-08-01T14:56:03;19.73;;;14.93;;
45488;SDS011;31236;55.026;61.042;2022-08-01T14:58:35;17.48;;;13.55;;
45488;SDS011;31236;55.026;61.042;2022-08-01T15:01:05;17.42;;;13.22;;
45488;SDS011;31236;55.026;61.042;2022-08-01T15:03:35;21.52;;;14.45;;
45488;SDS011;31236;55.026;61.042;2022-08-01T15:06:07;21.43;;;14.87;;
45488;SDS011;31236;55.026;61.042;2022-08-01T15:08:39;20.20;;;15.23;;
45488;SDS011;31236;55.026;61.042;2022-08-01T15:11:09;20.32;;;15.40;;
45488;SDS011;31236;55.026;61.042;2022-08-01T15:13:40;22.32;;;15.03;;
45488;SDS011;31236;55.026;61.042;2022-08-01T15:16:11;15.88;;;11.33;;
45488;SDS011;31236;55.026;61.042;2022-08-01T15:18:42;13.25;;;8.98;;
45488;SDS011;31236;55.026;61.042;2022-08-01T15:21:13;17.10;;;10.15;;
45488;SDS011;31236;55.026;61.042;2022-08-01T15:23:43;15.60;;;8.60;;
45488;SDS011;31236;55.026;61.042;2022-08-01T15:26:13;13.65;;;8.98;;
45488;SDS011;31236;55.026;61.042;2022-08-01T15:28:44;14.38;;;8.23;;
45488;SDS011;31236;55.026;61.042;2022-08-01T15:31:14;13.38;;;8.60;;
45488;SDS011;31236;55.026;61.042;2022-08-01T15:33:44;14.93;;;8.63;;
45488;SDS011;31236;55.026;61.042;2022-08-01T15:36:15;13.78;;;8.63;;
45488;SDS011;31236;55.026;61.042;2022-08-01T15:38:45;14.18;;;9.03;;
45488;SDS011;31236;55.026;61.042;2022-08-01T15:41:16;14.38;;;8.90;;
45488;SDS011;31236;55.026;61.042;2022-08-01T15:43:46;13.90;;;8.55;;
45488;SDS011;31236;55.026;61.042;2022-08-01T15:46:17;14.50;;;9.95;;
45488;SDS011;31236;55.026;61.042;2022-08-01T15:48:47;17.73;;;11.45;;
45488;SDS011;31236;55.026;61.042;2022-08-01T15:51:18;16.90;;;11.15;;
45488;SDS011;31236;55.026;61.042;2022-08-01T15:53:48;22.15;;;12.37;;
45488;SDS011;31236;55.026;61.042;2022-08-01T15:56:19;18.00;;;10.45;;
45488;SDS011;31236;55.026;61.042;2022-08-01T15:58:50;17.05;;;10.80;;
45488;SDS011;31236;55.026;61.042;2022-08-01T16:01:20;16.05;;;9.48;;
45488;SDS011;31236;55.026;61.042;2022-08-01T16:07:39;16.90;;;9.80;;
45488;SDS011;31236;55.026;61.042;2022-08-01T16:10:10;16.48;;;9.88;;
45488;SDS011;31236;55.026;61.042;2022-08-01T16:12:42;16.90;;;9.88;;
45488;SDS011;31236;55.026;61.042;2022-08-01T16:15:13;18.57;;;10.23;;
45488;SDS011;31236;55.026;61.042;2022-08-01T16:17:43;15.30;;;9.08;;
45488;SDS011;31236;55.026;61.042;2022-08-01T16:20:13;15.68;;;9.28;;
45488;SDS011;31236;55.026;61.042;2022-08-01T16:22:44;21.77;;;11.65;;
45488;SDS011;31236;55.026;61.042;2022-08-01T16:25:15;15.88;;;9.93;;
45488;SDS011;31236;55.026;61.042;2022-08-01T16:27:45;18.10;;;12.58;;
45488;SDS011;31236;55.026;61.042;2022-08-01T16:30:16;19.10;;;13.78;;
45488;SDS011;31236;55.026;61.042;2022-08-01T16:32:48;20.50;;;12.20;;
45488;SDS011;31236;55.026;61.042;2022-08-01T16:35:18;23.95;;;13.95;;
45488;SDS011;31236;55.026;61.042;2022-08-01T16:37:48;21.30;;;13.45;;
45488;SDS011;31236;55.026;61.042;2022-08-01T16:40:19;20.20;;;12.15;;
45488;SDS011;31236;55.026;61.042;2022-08-01T16:42:49;20.23;;;12.88;;
45488;SDS011;31236;55.026;61.042;2022-08-01T16:45:19;22.50;;;12.82;;
45488;SDS011;31236;55.026;61.042;2022-08-01T16:47:50;17.90;;;11.68;;
45488;SDS011;31236;55.026;61.042;2022-08-01T16:50:22;19.90;;;11.35;;
45488;SDS011;31236;55.026;61.042;2022-08-01T16:53:31;20.43;;;11.95;;
45488;SDS011;31236;55.026;61.042;2022-08-01T16:56:01;21.17;;;13.40;;
45488;SDS011;31236;55.026;61.042;2022-08-01T16:58:31;30.70;;;14.65;;
45488;SDS011;31236;55.026;61.042;2022-08-01T17:01:02;22.30;;;14.47;;
45488;SDS011;31236;55.026;61.042;2022-08-01T17:06:04;28.90;;;15.35;;
45488;SDS011;31236;55.026;61.042;2022-08-01T17:11:09;18.67;;;12.50;;
45488;SDS011;31236;55.026;61.042;2022-08-01T17:13:39;17.90;;;12.43;;
45488;SDS011;31236;55.026;61.042;2022-08-01T17:16:10;21.05;;;13.62;;
45488;SDS011;31236;55.026;61.042;2022-08-01T17:18:40;18.60;;;12.28;;
45488;SDS011;31236;55.026;61.042;2022-08-01T17:21:11;19.32;;;11.33;;
45488;SDS011;31236;55.026;61.042;2022-08-01T17:23:41;18.27;;;10.90;;
45488;SDS011;31236;55.026;61.042;2022-08-01T17:26:11;16.55;;;11.45;;
45488;SDS011;31236;55.026;61.042;2022-08-01T17:28:42;15.58;;;10.45;;
45488;SDS011;31236;55.026;61.042;2022-08-01T17:31:12;18.62;;;10.65;;
45488;SDS011;31236;55.026;61.042;2022-08-01T17:33:42;19.90;;;11.10;;
45488;SDS011;31236;55.026;61.042;2022-08-01T17:36:13;16.65;;;11.57;;
45488;SDS011;31236;55.026;61.042;2022-08-01T17:38:45;18.10;;;11.33;;
45488;SDS011;31236;55.026;61.042;2022-08-01T17:41:17;15.40;;;10.25;;
45488;SDS011;31236;55.026;61.042;2022-08-01T17:44:28;17.50;;;11.70;;
45488;SDS011;31236;55.026;61.042;2022-08-01T17:46:59;17.85;;;11.53;;
45488;SDS011;31236;55.026;61.042;2022-08-01T17:49:29;17.98;;;11.83;;
45488;SDS011;31236;55.026;61.042;2022-08-01T17:51:59;17.07;;;10.93;;